createdAt,value
2018-06-14T00:00:44.377Z,5.57
2018-06-14T00:03:12.624Z,5.40
2018-06-14T00:05:41.643Z,5.73
2018-06-14T00:08:09.905Z,5.23
2018-06-14T00:10:38.168Z,5.37
2018-06-14T00:13:07.191Z,5.70
2018-06-14T00:15:35.443Z,5.60
2018-06-14T00:18:04.477Z,6.47
2018-06-14T00:20:32.726Z,6.20
2018-06-14T00:23:01.003Z,5.63
2018-06-14T00:25:29.988Z,6.13
2018-06-14T00:27:58.995Z,6.00
2018-06-14T00:30:27.267Z,5.97
2018-06-14T00:32:55.526Z,5.87
2018-06-14T00:35:24.559Z,5.97
2018-06-14T00:37:52.801Z,6.07
2018-06-14T00:40:21.047Z,5.60
2018-06-14T00:42:49.512Z,6.00
2018-06-14T00:45:17.756Z,5.87
2018-06-14T00:47:46.003Z,6.03
2018-06-14T00:50:14.259Z,5.77
2018-06-14T00:52:43.265Z,6.30
2018-06-14T00:55:11.533Z,5.67
2018-06-14T00:57:40.534Z,6.10
2018-06-14T01:00:08.795Z,6.10
2018-06-14T01:02:37.813Z,6.00
2018-06-14T01:05:06.079Z,6.10
2018-06-14T01:07:34.336Z,5.93
2018-06-14T01:10:03.351Z,5.80
2018-06-14T01:12:31.606Z,5.63
2018-06-14T01:15:00.665Z,5.53
2018-06-14T01:17:28.944Z,5.83
2018-06-14T01:19:57.181Z,6.50
2018-06-14T01:22:26.195Z,5.80
2018-06-14T01:24:54.471Z,5.80
2018-06-14T01:27:22.737Z,6.27
2018-06-14T01:29:51.743Z,6.37
2018-06-14T01:32:20.001Z,6.07
2018-06-14T01:34:48.279Z,6.27
2018-06-14T01:37:16.517Z,5.80
2018-06-14T01:39:45.576Z,6.10
2018-06-14T01:42:13.881Z,6.70
2018-06-14T01:44:42.910Z,5.53
2018-06-14T01:47:11.169Z,5.90
2018-06-14T01:49:39.650Z,5.90
2018-06-14T01:52:07.923Z,6.10
2018-06-14T01:54:36.196Z,6.50
2018-06-14T01:57:04.484Z,6.47
2018-06-14T01:59:32.784Z,6.13
2018-06-14T02:02:01.862Z,6.53
2018-06-14T02:04:30.121Z,7.40
2018-06-14T02:06:58.357Z,6.20
2018-06-14T02:09:27.391Z,6.17
2018-06-14T02:11:55.648Z,6.67
2018-06-14T02:14:23.943Z,6.13
2018-06-14T02:16:52.222Z,6.90
2018-06-14T02:19:20.477Z,6.60
2018-06-14T02:21:48.761Z,6.37
2018-06-14T02:24:17.776Z,6.80
2018-06-14T02:26:46.014Z,5.90
2018-06-14T02:29:15.200Z,6.60
2018-06-14T02:31:43.452Z,6.57
2018-06-14T02:34:11.686Z,7.13
2018-06-14T02:36:40.868Z,6.23
2018-06-14T02:39:09.154Z,6.17
2018-06-14T02:41:37.415Z,6.57
2018-06-14T02:44:05.692Z,6.37
2018-06-14T02:46:33.967Z,6.77
2018-06-14T02:49:02.214Z,7.10
2018-06-14T02:51:30.486Z,6.27
2018-06-14T02:53:58.938Z,6.53
2018-06-14T02:56:27.184Z,6.57
2018-06-14T02:58:55.432Z,6.70
2018-06-14T03:01:24.449Z,6.93
2018-06-14T03:03:52.699Z,6.70
2018-06-14T03:06:21.740Z,6.77
2018-06-14T03:08:49.992Z,7.07
2018-06-14T03:11:18.265Z,7.70
2018-06-14T03:13:46.534Z,7.20
2018-06-14T03:16:14.796Z,6.53
2018-06-14T03:18:43.830Z,7.00
2018-06-14T03:21:12.106Z,6.60
2018-06-14T03:23:40.361Z,7.03
2018-06-14T03:26:08.720Z,7.73
2018-06-14T03:28:36.979Z,6.77
2018-06-14T03:31:06.035Z,7.00
2018-06-14T03:33:34.288Z,7.30
2018-06-14T03:36:02.714Z,7.13
2018-06-14T03:38:30.963Z,7.73
2018-06-14T03:40:59.221Z,7.40
2018-06-14T03:43:27.481Z,7.30
2018-06-14T03:45:55.739Z,7.60
2018-06-14T03:48:24.762Z,7.30
2018-06-14T03:50:53.788Z,7.43
2018-06-14T03:53:22.063Z,7.07
2018-06-14T03:55:50.321Z,7.40
2018-06-14T03:58:18.613Z,7.30
2018-06-14T04:00:46.860Z,7.67
2018-06-14T04:03:15.140Z,7.53
2018-06-14T04:05:43.378Z,7.37
2018-06-14T04:08:11.650Z,7.67
2018-06-14T04:10:39.920Z,7.37
2018-06-14T04:13:08.969Z,7.60
2018-06-14T04:15:37.219Z,7.57
2018-06-14T04:18:05.480Z,7.47
2018-06-14T04:20:33.877Z,7.87
2018-06-14T04:23:02.020Z,7.20
2018-06-14T04:25:30.282Z,7.43
2018-06-14T04:27:59.309Z,8.63
2018-06-14T04:30:27.595Z,7.37
2018-06-14T04:32:55.827Z,8.67
2018-06-14T04:35:24.300Z,7.67
2018-06-14T04:37:52.570Z,7.67
2018-06-14T04:40:20.824Z,7.30
2018-06-14T04:42:49.092Z,7.93
2018-06-14T04:45:17.362Z,8.27
2018-06-14T04:47:45.630Z,8.37
2018-06-14T04:50:13.884Z,8.17
2018-06-14T04:52:42.196Z,8.67
2018-06-14T04:55:10.449Z,8.20
2018-06-14T04:57:38.717Z,8.23
2018-06-14T05:00:07.003Z,8.97
2018-06-14T05:02:35.286Z,8.67
2018-06-14T05:05:04.288Z,8.40
2018-06-14T05:07:32.566Z,8.33
2018-06-14T05:10:00.815Z,8.50
2018-06-14T05:12:29.100Z,8.77
2018-06-14T05:14:57.352Z,8.67
2018-06-14T05:17:25.612Z,8.90
2018-06-14T05:19:53.874Z,8.67
2018-06-14T05:22:22.895Z,8.30
2018-06-14T05:24:51.200Z,8.77
2018-06-14T05:27:19.455Z,8.20
2018-06-14T05:29:47.700Z,8.80
2018-06-14T05:32:16.745Z,8.50
2018-06-14T05:34:45.305Z,8.80
2018-06-14T05:37:13.602Z,9.20
2018-06-14T05:39:41.850Z,8.53
2018-06-14T05:42:10.159Z,8.33
2018-06-14T05:44:39.140Z,9.13
2018-06-14T05:47:07.366Z,8.10
2018-06-14T05:49:36.401Z,8.30
2018-06-14T05:52:04.682Z,9.40
2018-06-14T05:54:32.924Z,7.87
2018-06-14T05:57:01.209Z,8.40
2018-06-14T05:59:29.454Z,8.07
2018-06-14T06:01:58.467Z,8.93
2018-06-14T06:04:26.747Z,8.93
2018-06-14T06:06:55.030Z,8.83
2018-06-14T06:09:23.276Z,8.90
2018-06-14T06:11:52.313Z,9.30
2018-06-14T06:14:20.569Z,9.07
2018-06-14T06:16:48.832Z,9.20
2018-06-14T06:19:17.099Z,9.53
2018-06-14T06:21:45.452Z,8.67
2018-06-14T06:24:13.709Z,8.73
2018-06-14T06:26:41.971Z,8.83
2018-06-14T06:29:10.237Z,9.10
2018-06-14T06:31:38.508Z,8.73
2018-06-14T06:34:06.763Z,9.10
2018-06-14T06:36:35.015Z,8.80
2018-06-14T06:39:04.078Z,9.50
2018-06-14T06:41:32.352Z,10.00
2018-06-14T06:44:00.619Z,12.10
2018-06-14T06:46:28.900Z,11.77
2018-06-14T06:48:57.165Z,11.30
2018-06-14T06:51:25.434Z,11.17
2018-06-14T06:53:53.701Z,10.77
2018-06-14T06:56:22.014Z,10.50
2018-06-14T06:58:50.297Z,10.30
2018-06-14T07:01:18.689Z,8.97
2018-06-14T07:03:47.700Z,9.43
2018-06-14T07:06:15.983Z,10.63
2018-06-14T07:08:44.252Z,8.93
2018-06-14T07:11:12.559Z,9.27
2018-06-14T07:13:40.820Z,9.23
2018-06-14T07:16:09.080Z,8.97
2018-06-14T07:18:37.353Z,8.80
2018-06-14T07:21:05.614Z,8.40
2018-06-14T07:23:33.868Z,8.03
2018-06-14T07:26:02.123Z,7.57
2018-06-14T07:28:30.374Z,7.17
2018-06-14T07:30:58.620Z,6.70
2018-06-14T07:33:26.901Z,7.10
2018-06-14T07:35:55.148Z,6.33
2018-06-14T07:38:24.172Z,6.17
2018-06-14T07:40:52.433Z,6.30
2018-06-14T07:43:20.688Z,5.27
2018-06-14T07:45:49.717Z,4.67
2018-06-14T07:48:17.984Z,4.90
2018-06-14T07:50:46.285Z,3.90
2018-06-14T07:53:14.528Z,4.10
2018-06-14T07:55:42.808Z,4.23
2018-06-14T07:58:11.063Z,4.63
2018-06-14T08:00:40.100Z,4.73
2018-06-14T08:03:08.346Z,4.60
2018-06-14T08:05:36.601Z,5.00
2018-06-14T08:08:04.848Z,5.00
2018-06-14T08:10:33.100Z,3.60
2018-06-14T08:13:01.479Z,3.23
2018-06-14T08:15:29.799Z,3.17
2018-06-14T08:17:58.027Z,2.80
2018-06-14T08:20:26.268Z,2.93
2018-06-14T08:22:54.540Z,2.43
2018-06-14T08:25:23.564Z,2.63
2018-06-14T08:27:51.825Z,2.33
2018-06-14T08:30:20.094Z,2.27
2018-06-14T08:32:48.344Z,2.30
2018-06-14T08:35:17.367Z,2.50
2018-06-14T08:37:45.625Z,3.27
2018-06-14T08:40:14.643Z,3.00
2018-06-14T08:42:43.012Z,2.90
2018-06-14T08:45:11.285Z,2.80
2018-06-14T08:47:40.286Z,2.70
2018-06-14T08:50:08.552Z,2.70
2018-06-14T08:52:36.796Z,2.33
2018-06-14T08:55:05.870Z,2.90
2018-06-14T08:57:34.109Z,2.53
2018-06-14T09:00:02.595Z,2.67
2018-06-14T09:02:30.857Z,2.57
2018-06-14T09:04:59.099Z,2.77
2018-06-14T09:07:28.129Z,2.70
2018-06-14T09:09:56.427Z,2.80
2018-06-14T09:12:24.687Z,2.60
2018-06-14T09:14:52.959Z,2.63
2018-06-14T09:17:21.196Z,2.67
2018-06-14T09:19:50.244Z,2.90
2018-06-14T09:22:18.504Z,2.70
2018-06-14T09:24:46.778Z,3.03
2018-06-14T09:27:15.044Z,2.80
2018-06-14T09:29:43.300Z,2.60
2018-06-14T09:32:12.339Z,2.90
2018-06-14T09:34:40.585Z,3.10
2018-06-14T09:37:08.856Z,2.70
2018-06-14T09:39:37.130Z,3.00
2018-06-14T09:42:05.397Z,2.67
2018-06-14T09:44:33.690Z,2.70
2018-06-14T09:47:01.968Z,2.50
2018-06-14T09:49:30.235Z,2.43
2018-06-14T09:51:58.495Z,2.50
2018-06-14T09:54:26.755Z,2.60
2018-06-14T09:56:55.776Z,2.60
2018-06-14T09:59:24.022Z,2.43
2018-06-14T10:01:52.276Z,2.33
2018-06-14T10:04:20.547Z,2.40
2018-06-14T10:06:48.792Z,2.43
2018-06-14T10:09:17.052Z,2.40
2018-06-14T10:11:45.299Z,2.60
2018-06-14T10:14:14.320Z,2.33
2018-06-14T10:16:42.621Z,2.40
2018-06-14T10:19:10.885Z,2.80
2018-06-14T10:21:39.152Z,2.43
2018-06-14T10:24:07.407Z,2.53
2018-06-14T10:26:35.682Z,2.30
2018-06-14T10:29:03.946Z,3.07
2018-06-14T10:31:33.111Z,2.57
2018-06-14T10:34:01.372Z,2.60
2018-06-14T10:36:29.624Z,2.50
2018-06-14T10:38:57.887Z,2.50
2018-06-14T10:41:26.126Z,2.80
2018-06-14T10:43:54.412Z,2.47
2018-06-14T10:46:23.453Z,2.23
2018-06-14T10:48:51.711Z,3.30
2018-06-14T10:51:19.979Z,3.27
2018-06-14T10:53:48.228Z,3.47
2018-06-14T10:56:17.388Z,3.90
2018-06-14T10:58:45.631Z,3.67
2018-06-14T11:01:14.909Z,3.20
2018-06-14T11:03:43.164Z,3.00
2018-06-14T11:06:11.467Z,2.87
2018-06-14T11:08:39.728Z,2.67
2018-06-14T11:11:07.983Z,2.77
2018-06-14T11:13:36.276Z,2.50
2018-06-14T11:16:05.311Z,2.53
2018-06-14T11:18:33.581Z,2.63
2018-06-14T11:21:01.858Z,2.10
2018-06-14T11:23:30.112Z,2.43
2018-06-14T11:25:58.391Z,2.70
2018-06-14T11:28:26.644Z,2.50
2018-06-14T11:30:55.732Z,2.53
2018-06-14T11:33:24.787Z,2.77
2018-06-14T11:35:53.033Z,2.77
2018-06-14T11:38:21.302Z,3.10
2018-06-14T11:40:49.579Z,2.90
2018-06-14T11:43:18.319Z,2.60
2018-06-14T11:45:47.588Z,3.07
2018-06-14T11:48:15.840Z,3.20
2018-06-14T11:50:44.067Z,3.20
2018-06-14T11:53:12.327Z,3.23
2018-06-14T11:55:40.590Z,3.10
2018-06-14T11:58:08.869Z,3.43
2018-06-14T12:00:37.109Z,3.20
2018-06-14T12:03:05.380Z,2.80
2018-06-14T12:05:34.398Z,2.60
2018-06-14T12:08:02.676Z,3.20
2018-06-14T12:10:30.942Z,3.23
2018-06-14T12:12:59.183Z,3.27
2018-06-14T12:15:28.192Z,3.50
2018-06-14T12:17:56.466Z,3.30
2018-06-14T12:20:25.473Z,3.50
2018-06-14T12:22:53.881Z,3.33
2018-06-14T12:25:22.199Z,3.23
2018-06-14T12:27:51.202Z,3.27
2018-06-14T12:30:19.599Z,3.30
2018-06-14T12:32:48.054Z,3.20
2018-06-14T12:35:17.163Z,2.67
2018-06-14T12:37:45.509Z,3.53
2018-06-14T12:40:13.703Z,2.70
2018-06-14T12:42:41.977Z,2.87
2018-06-14T12:45:10.221Z,2.97
2018-06-14T12:47:38.482Z,2.73
2018-06-14T12:50:06.729Z,2.90
2018-06-14T12:52:34.977Z,3.10
2018-06-14T12:55:03.258Z,3.10
2018-06-14T12:57:31.504Z,2.57
2018-06-14T13:00:00.568Z,2.80
2018-06-14T13:02:28.820Z,2.67
2018-06-14T13:04:57.098Z,2.87
2018-06-14T13:07:25.406Z,3.10
2018-06-14T13:09:53.665Z,2.90
2018-06-14T13:12:21.931Z,3.17
2018-06-14T13:14:50.965Z,2.80
2018-06-14T13:17:19.196Z,2.40
2018-06-14T13:19:47.475Z,2.53
2018-06-14T13:22:15.736Z,2.47
2018-06-14T13:24:44.141Z,2.73
2018-06-14T13:27:12.472Z,2.87
2018-06-14T13:29:40.724Z,2.60
2018-06-14T13:32:09.001Z,2.50
2018-06-14T13:34:38.019Z,2.63
2018-06-14T13:37:06.296Z,2.60
2018-06-14T13:39:34.577Z,2.40
2018-06-14T13:42:02.834Z,2.40
2018-06-14T13:44:31.859Z,2.43
2018-06-14T13:47:00.894Z,2.30
2018-06-14T13:49:29.306Z,2.40
2018-06-14T13:51:57.561Z,2.57
2018-06-14T13:54:26.582Z,2.50
2018-06-14T13:56:55.029Z,2.30
2018-06-14T13:59:23.248Z,2.40
2018-06-14T14:01:51.475Z,2.50
2018-06-14T14:04:20.516Z,2.33
2018-06-14T14:06:48.772Z,2.53
2018-06-14T14:09:17.064Z,2.93
2018-06-14T14:11:45.458Z,2.83
2018-06-14T14:14:13.779Z,3.00
2018-06-14T14:16:42.037Z,2.70
2018-06-14T14:19:10.292Z,3.10
2018-06-14T14:21:38.550Z,2.53
2018-06-14T14:24:06.808Z,3.10
2018-06-14T14:26:36.019Z,3.13
2018-06-14T14:29:04.275Z,3.17
2018-06-14T14:31:32.529Z,2.93
2018-06-14T14:34:01.567Z,3.10
2018-06-14T14:36:29.854Z,3.13
2018-06-14T14:38:58.305Z,3.20
2018-06-14T14:41:27.286Z,3.00
2018-06-14T14:43:55.554Z,3.20
2018-06-14T14:46:23.925Z,3.10
2018-06-14T14:48:52.279Z,3.20
2018-06-14T14:51:20.572Z,3.20
2018-06-14T14:53:49.609Z,3.43
2018-06-14T14:56:17.880Z,3.23
2018-06-14T14:58:46.155Z,3.63
2018-06-14T15:01:14.428Z,3.90
2018-06-14T15:03:42.720Z,3.67
2018-06-14T15:06:11.006Z,3.40
2018-06-14T15:08:39.224Z,3.83
2018-06-14T15:11:07.491Z,3.50
2018-06-14T15:13:36.543Z,3.60
2018-06-14T15:16:05.025Z,3.57
2018-06-14T15:18:33.300Z,3.87
2018-06-14T15:21:01.555Z,3.57
2018-06-14T15:23:29.819Z,3.40
2018-06-14T15:25:58.063Z,3.43
2018-06-14T15:28:28.200Z,3.67
2018-06-14T15:30:56.715Z,3.87
2018-06-14T15:33:24.995Z,3.90
2018-06-14T15:35:53.258Z,3.73
2018-06-14T15:38:21.524Z,3.80
2018-06-14T15:40:49.815Z,3.90
2018-06-14T15:43:18.227Z,4.07
2018-06-14T15:45:46.522Z,3.93
2018-06-14T15:48:15.570Z,3.93
2018-06-14T15:50:43.838Z,3.90
2018-06-14T15:53:12.088Z,3.93
2018-06-14T15:55:40.363Z,4.03
2018-06-14T15:58:08.738Z,4.10
2018-06-14T16:00:36.992Z,4.10
2018-06-14T16:03:06.012Z,4.80
2018-06-14T16:05:34.278Z,4.53
2018-06-14T16:08:02.546Z,4.27
2018-06-14T16:10:30.805Z,3.87
2018-06-14T16:12:59.072Z,4.27
2018-06-14T16:15:28.102Z,3.73
2018-06-14T16:17:56.375Z,3.73
2018-06-14T16:20:25.407Z,3.83
2018-06-14T16:22:53.722Z,3.77
2018-06-14T16:25:21.985Z,4.00
2018-06-14T16:27:50.995Z,3.73
2018-06-14T16:30:19.245Z,3.70
2018-06-14T16:32:47.524Z,4.37
2018-06-14T16:35:16.538Z,3.80
2018-06-14T16:37:45.579Z,3.80
2018-06-14T16:40:13.903Z,3.80
2018-06-14T16:42:42.113Z,4.33
2018-06-14T16:45:10.523Z,3.80
2018-06-14T16:47:38.771Z,3.60
2018-06-14T16:50:07.026Z,3.80
2018-06-14T16:52:35.306Z,4.33
2018-06-14T16:55:03.603Z,4.20
2018-06-14T16:57:31.853Z,4.53
2018-06-14T17:00:00.120Z,4.60
2018-06-14T17:02:28.394Z,4.27
2018-06-14T17:04:57.435Z,4.10
2018-06-14T17:07:25.665Z,3.83
2018-06-14T17:09:53.932Z,4.00
2018-06-14T17:12:22.185Z,3.77
2018-06-14T17:14:51.239Z,4.00
2018-06-14T17:17:19.587Z,3.80
2018-06-14T17:19:47.895Z,4.13
2018-06-14T17:22:16.161Z,3.90
2018-06-14T17:24:44.413Z,4.27
2018-06-14T17:27:12.680Z,4.07
2018-06-14T17:29:40.945Z,4.37
2018-06-14T17:32:09.207Z,4.50
2018-06-14T17:34:38.224Z,4.53
2018-06-14T17:37:06.734Z,4.53
2018-06-14T17:39:35.754Z,4.17
2018-06-14T17:42:04.028Z,4.80
2018-06-14T17:44:32.320Z,5.20
2018-06-14T17:47:01.353Z,4.60
2018-06-14T17:49:29.602Z,5.17
2018-06-14T17:51:58.664Z,5.40
2018-06-14T17:54:26.934Z,4.77
2018-06-14T17:56:55.198Z,5.37
2018-06-14T17:59:23.436Z,4.70
2018-06-14T18:01:51.679Z,4.83
2018-06-14T18:04:20.831Z,4.73
2018-06-14T18:06:49.096Z,4.70
2018-06-14T18:09:17.366Z,4.83
2018-06-14T18:11:45.659Z,4.87
2018-06-14T18:14:13.908Z,4.53
2018-06-14T18:16:42.165Z,5.20
2018-06-14T18:19:10.440Z,5.40
2018-06-14T18:21:39.497Z,5.07
2018-06-14T18:24:07.741Z,4.83
2018-06-14T18:26:36.046Z,4.87
2018-06-14T18:29:04.366Z,5.03
2018-06-14T18:31:32.643Z,5.47
2018-06-14T18:34:00.926Z,5.33
2018-06-14T18:36:29.199Z,5.80
2018-06-14T18:38:57.445Z,5.37
2018-06-14T18:41:26.619Z,5.03
2018-06-14T18:43:55.657Z,4.77
2018-06-14T18:46:23.952Z,5.20
2018-06-14T18:48:52.310Z,5.23
2018-06-14T18:51:20.584Z,5.90
2018-06-14T18:53:48.842Z,5.60
2018-06-14T18:56:17.870Z,5.23
2018-06-14T18:58:46.126Z,5.40
2018-06-14T19:01:14.381Z,5.60
2018-06-14T19:03:43.418Z,5.97
2018-06-14T19:06:11.689Z,5.37
2018-06-14T19:08:39.947Z,5.83
2018-06-14T19:11:08.216Z,5.30
2018-06-14T19:13:36.484Z,5.10
2018-06-14T19:16:06.178Z,6.10
2018-06-14T19:18:35.260Z,5.90
2018-06-14T19:21:03.522Z,5.60
2018-06-14T19:23:32.057Z,5.67
2018-06-14T19:26:00.332Z,6.20
2018-06-14T19:28:29.351Z,6.23
2018-06-14T19:30:57.626Z,5.77
2018-06-14T19:33:25.876Z,6.13
2018-06-14T19:35:54.184Z,6.40
2018-06-14T19:38:22.430Z,6.00
2018-06-14T19:40:50.743Z,5.97
2018-06-14T19:43:19.132Z,5.90
2018-06-14T19:45:47.390Z,6.23
2018-06-14T19:48:15.660Z,6.30
2018-06-14T19:50:43.925Z,6.20
2018-06-14T19:53:12.224Z,6.40
2018-06-14T19:55:40.503Z,6.33
2018-06-14T19:58:08.805Z,6.40
2018-06-14T20:00:37.835Z,6.47
2018-06-14T20:03:06.974Z,6.27
2018-06-14T20:05:35.242Z,6.40
2018-06-14T20:08:03.528Z,5.83
2018-06-14T20:10:31.816Z,5.97
2018-06-14T20:13:00.093Z,5.70
2018-06-14T20:15:28.354Z,5.93
2018-06-14T20:17:56.613Z,6.03
2018-06-14T20:20:24.904Z,5.87
2018-06-14T20:22:53.188Z,5.80
2018-06-14T20:25:21.481Z,6.43
2018-06-14T20:27:50.511Z,6.13
2018-06-14T20:30:18.803Z,6.23
2018-06-14T20:32:47.077Z,6.40
2018-06-14T20:35:15.384Z,7.00
2018-06-14T20:37:43.624Z,6.30
2018-06-14T20:40:12.302Z,6.90
2018-06-14T20:42:40.618Z,6.80
2018-06-14T20:45:08.874Z,6.10
2018-06-14T20:47:37.170Z,6.53
2018-06-14T20:50:05.431Z,6.37
2018-06-14T20:52:33.719Z,6.40
2018-06-14T20:55:01.967Z,6.50
2018-06-14T20:57:30.433Z,6.23
2018-06-14T20:59:59.399Z,6.40
2018-06-14T21:02:27.656Z,7.00
2018-06-14T21:04:56.684Z,7.07
2018-06-14T21:07:24.947Z,6.00
2018-06-14T21:09:53.417Z,6.90
2018-06-14T21:12:21.661Z,6.50
2018-06-14T21:14:50.671Z,6.50
2018-06-14T21:17:19.815Z,6.97
2018-06-14T21:19:48.059Z,7.33
2018-06-14T21:22:16.331Z,6.80
2018-06-14T21:24:44.578Z,6.73
2018-06-14T21:27:13.602Z,6.80
2018-06-14T21:29:41.846Z,6.60
2018-06-14T21:32:10.976Z,6.40
2018-06-14T21:34:39.224Z,6.50
2018-06-14T21:37:08.234Z,6.63
2018-06-14T21:39:36.713Z,7.43
2018-06-14T21:42:04.956Z,6.50
2018-06-14T21:44:33.200Z,6.43
2018-06-14T21:47:01.480Z,7.33
2018-06-14T21:49:29.734Z,7.27
2018-06-14T21:51:58.001Z,7.03
2018-06-14T21:54:26.242Z,7.10
2018-06-14T21:56:55.262Z,6.80
2018-06-14T21:59:23.520Z,6.83
2018-06-14T22:01:52.542Z,6.97
2018-06-14T22:04:20.822Z,7.33
2018-06-14T22:06:49.080Z,7.10
2018-06-14T22:09:17.328Z,6.70
2018-06-14T22:11:46.351Z,7.47
2018-06-14T22:14:14.614Z,7.00
2018-06-14T22:16:42.883Z,6.90
2018-06-14T22:19:11.267Z,7.33
2018-06-14T22:21:39.520Z,6.90
2018-06-14T22:24:08.532Z,6.97
2018-06-14T22:26:36.811Z,7.00
2018-06-14T22:29:05.087Z,7.90
2018-06-14T22:31:33.331Z,7.50
2018-06-14T22:34:13.301Z,6.90
2018-06-14T22:36:42.345Z,7.20
2018-06-14T22:39:10.600Z,7.23
2018-06-14T22:41:38.879Z,7.30
2018-06-14T22:44:07.175Z,6.83
2018-06-14T22:46:35.398Z,7.13
2018-06-14T22:49:03.654Z,7.17
2018-06-14T22:51:32.673Z,6.87
2018-06-14T22:54:00.923Z,6.97
2018-06-14T22:56:29.942Z,6.87
2018-06-14T22:58:58.320Z,6.63
2018-06-14T23:01:26.581Z,6.87
2018-06-14T23:03:54.828Z,6.47
2018-06-14T23:06:23.092Z,7.63
2018-06-14T23:08:51.358Z,7.23
2018-06-14T23:11:19.645Z,7.80
2018-06-14T23:13:47.936Z,6.60
2018-06-14T23:16:17.183Z,6.73
2018-06-14T23:18:45.431Z,7.00
2018-06-14T23:21:13.697Z,6.73
2018-06-14T23:23:42.730Z,7.00
2018-06-14T23:26:10.996Z,6.20
2018-06-14T23:28:39.470Z,6.43
2018-06-14T23:31:07.768Z,6.50
2018-06-14T23:33:36.019Z,6.23
2018-06-14T23:36:04.288Z,6.77
2018-06-14T23:38:33.306Z,7.37
2018-06-14T23:41:01.788Z,6.90
2018-06-14T23:43:30.064Z,6.97
2018-06-14T23:45:58.307Z,6.40
2018-06-14T23:48:26.579Z,7.03
2018-06-14T23:50:54.834Z,6.60
2018-06-14T23:53:23.882Z,6.83
2018-06-14T23:55:52.139Z,6.77
2018-06-14T23:58:20.380Z,7.20
